Palmdale, Pennsylvania
Current Conditions -  °F | °C
As of 4:56 AM on Tuesday 27 Jan 2015 (Local Time) from KMDT Reporting Station
Light Snow Light Snow  
Wind Chill: 16°   Ceiling: 4800
Heat Index: 26°   Visibility: 8mi
Dew Point: 20°   Wind: 10mph
Humidity: 78%   Direction: 340°NNW
Pressure: 29.75"   Gusts: NA
Location:  40.2634°N, 76.626°W
Report Text: KMDT 270956Z 34009KT 8SM -SN SCT040 OVC048 M03/M07 A2975 RMK AO2 SLP079 P0000 T10331067
Loading
Personal Weather Stations






























Interactive Weather Map New forecast layout! Learn more

10-Day Weather Forecast

Advertisements
Track Severe Weather on mobile